createdAt,value
2022-12-01T00:01:38.831Z,45.92
2022-12-01T00:04:07.331Z,45.67
2022-12-01T00:06:35.806Z,45.88
2022-12-01T00:09:21.710Z,45.81
2022-12-01T00:11:51.549Z,45.61
2022-12-01T00:14:19.942Z,45.64
2022-12-01T00:16:48.413Z,45.79
2022-12-01T00:19:17.725Z,45.77
2022-12-01T00:21:47.166Z,45.75
2022-12-01T00:24:15.611Z,45.79
2022-12-01T00:26:44.011Z,45.54
2022-12-01T00:29:14.156Z,45.55
2022-12-01T00:31:42.651Z,45.62
2022-12-01T00:34:21.475Z,45.74
2022-12-01T00:36:49.971Z,45.55
2022-12-01T00:39:18.504Z,45.75
2022-12-01T00:41:46.902Z,45.68
2022-12-01T00:44:16.685Z,45.42
2022-12-01T00:46:45.123Z,45.60
2022-12-01T00:49:14.611Z,45.75
2022-12-01T00:51:43.562Z,45.48
2022-12-01T00:54:11.980Z,45.65
2022-12-01T00:56:40.411Z,45.39
2022-12-01T00:59:08.906Z,45.62
2022-12-01T01:01:38.969Z,45.49
2022-12-01T01:04:07.920Z,45.30
2022-12-01T01:06:36.414Z,45.53
2022-12-01T01:09:05.019Z,45.22
2022-12-01T01:11:33.432Z,45.35
2022-12-01T01:14:01.898Z,45.58
2022-12-01T01:16:30.738Z,45.10
2022-12-01T01:19:01.014Z,45.19
2022-12-01T01:21:29.555Z,45.31
2022-12-01T01:23:57.977Z,45.26
2022-12-01T01:26:28.275Z,45.34
2022-12-01T01:28:58.488Z,45.21
2022-12-01T01:31:29.207Z,45.13
2022-12-01T01:33:59.947Z,45.18
2022-12-01T01:36:28.858Z,45.28
2022-12-01T01:38:57.330Z,45.17
2022-12-01T01:41:26.173Z,45.03
2022-12-01T01:43:56.539Z,45.02
2022-12-01T01:46:27.814Z,45.11
2022-12-01T01:49:00.082Z,45.04
2022-12-01T01:51:34.430Z,44.94
2022-12-01T01:54:07.074Z,45.04
2022-12-01T01:56:36.948Z,45.53
2022-12-01T01:59:05.450Z,45.44
2022-12-01T02:01:34.066Z,45.12
2022-12-01T02:04:03.836Z,44.88
2022-12-01T02:06:33.991Z,45.09
2022-12-01T02:09:02.447Z,45.00
2022-12-01T02:11:50.837Z,44.90
2022-12-01T02:14:51.250Z,44.82
2022-12-01T02:17:30.753Z,44.94
2022-12-01T02:20:49.892Z,45.13
2022-12-01T02:23:57.544Z,44.78
2022-12-01T02:26:40.409Z,44.83
2022-12-01T02:29:43.423Z,44.81
2022-12-01T02:32:19.874Z,44.88
2022-12-01T02:34:57.680Z,44.81
2022-12-01T02:37:32.779Z,44.71
2022-12-01T02:40:10.275Z,44.77
2022-12-01T02:42:50.567Z,44.74
2022-12-01T02:45:29.968Z,44.85
2022-12-01T02:48:03.149Z,44.90
2022-12-01T02:50:34.607Z,44.60
2022-12-01T02:53:06.432Z,44.57
2022-12-01T02:55:34.996Z,44.65
2022-12-01T02:58:03.418Z,44.86
2022-12-01T03:00:32.267Z,44.86
2022-12-01T03:03:23.696Z,44.76
2022-12-01T03:06:00.247Z,44.60
2022-12-01T03:08:36.001Z,44.77
2022-12-01T03:11:04.576Z,44.53
2022-12-01T03:13:43.112Z,44.67
2022-12-01T03:16:15.641Z,44.67
2022-12-01T03:18:51.796Z,44.58
2022-12-01T03:21:28.035Z,44.56
2022-12-01T03:23:59.597Z,44.74
2022-12-01T03:26:32.272Z,44.67
2022-12-01T03:29:06.372Z,44.64
2022-12-01T03:31:39.374Z,44.67
2022-12-01T03:34:13.194Z,44.39
2022-12-01T03:36:46.261Z,44.49
2022-12-01T03:39:21.012Z,44.48
2022-12-01T03:41:55.006Z,44.41
2022-12-01T03:44:28.052Z,44.42
2022-12-01T03:47:02.909Z,44.23
2022-12-01T03:49:33.664Z,44.47
2022-12-01T03:52:11.814Z,44.19
2022-12-01T03:54:50.072Z,44.32
2022-12-01T03:57:25.270Z,44.40
2022-12-01T03:59:54.908Z,44.39
2022-12-01T04:02:27.444Z,44.08
2022-12-01T04:04:57.197Z,44.31
2022-12-01T04:07:25.632Z,44.39
2022-12-01T04:09:54.018Z,44.38
2022-12-01T04:12:30.497Z,44.21
2022-12-01T04:15:00.098Z,44.11
2022-12-01T04:17:29.373Z,44.35
2022-12-01T04:19:59.239Z,43.97
2022-12-01T04:22:27.892Z,44.30
2022-12-01T04:24:56.395Z,44.08
2022-12-01T04:27:24.918Z,44.39
2022-12-01T04:29:53.711Z,44.23
2022-12-01T04:32:22.096Z,44.04
2022-12-01T04:34:50.523Z,44.01
2022-12-01T04:37:20.507Z,44.21
2022-12-01T04:39:49.261Z,44.21
2022-12-01T04:42:17.976Z,44.16
2022-12-01T04:44:46.418Z,44.07
2022-12-01T04:47:14.830Z,44.03
2022-12-01T04:49:43.279Z,44.08
2022-12-01T04:52:11.707Z,44.16
2022-12-01T04:54:41.534Z,44.69
2022-12-01T04:57:09.940Z,45.06
2022-12-01T04:59:38.386Z,45.01
2022-12-01T05:02:06.793Z,45.10
2022-12-01T05:04:38.504Z,45.25
2022-12-01T05:07:07.197Z,45.32
2022-12-01T05:09:35.744Z,44.97
2022-12-01T05:12:06.083Z,44.97
2022-12-01T05:14:34.507Z,45.06
2022-12-01T05:17:02.945Z,44.87
2022-12-01T05:19:49.172Z,44.87
2022-12-01T05:22:26.923Z,44.75
2022-12-01T05:25:05.432Z,44.92
2022-12-01T05:27:35.175Z,44.73
2022-12-01T05:30:03.612Z,44.70
2022-12-01T05:32:32.007Z,44.65
2022-12-01T05:35:00.396Z,44.82
2022-12-01T05:37:33.191Z,44.71
2022-12-01T05:40:02.013Z,45.05
2022-12-01T05:42:30.477Z,45.29
2022-12-01T05:45:00.268Z,45.37
2022-12-01T05:47:28.675Z,45.53
2022-12-01T05:50:02.119Z,45.78
2022-12-01T05:52:34.374Z,45.75
2022-12-01T05:55:02.901Z,45.94
2022-12-01T05:57:31.986Z,46.05
2022-12-01T06:00:01.816Z,45.84
2022-12-01T06:02:39.960Z,46.00
2022-12-01T06:05:09.708Z,46.20
2022-12-01T06:07:40.245Z,46.13
2022-12-01T06:10:10.859Z,46.26
2022-12-01T06:12:39.677Z,46.32
2022-12-01T06:15:12.231Z,46.11
2022-12-01T06:17:40.969Z,46.26
2022-12-01T06:20:10.908Z,46.37
2022-12-01T06:22:39.397Z,46.30
2022-12-01T06:25:09.136Z,46.44
2022-12-01T06:27:37.746Z,46.38
2022-12-01T06:30:07.426Z,46.47
2022-12-01T06:32:37.342Z,46.43
2022-12-01T06:35:06.464Z,46.38
2022-12-01T06:37:34.942Z,46.33
2022-12-01T06:40:04.301Z,46.40
2022-12-01T06:42:32.712Z,46.53
2022-12-01T06:45:01.170Z,47.00
2022-12-01T06:47:29.598Z,47.34
2022-12-01T06:49:59.443Z,47.33
2022-12-01T06:52:27.964Z,47.40
2022-12-01T06:54:56.472Z,47.49
2022-12-01T06:57:25.313Z,47.64
2022-12-01T06:59:54.181Z,47.54
2022-12-01T07:02:23.409Z,47.35
2022-12-01T07:04:51.840Z,47.41
2022-12-01T07:07:21.678Z,47.40
2022-12-01T07:09:50.390Z,47.46
2022-12-01T07:12:19.088Z,47.49
2022-12-01T07:14:47.498Z,47.71
2022-12-01T07:17:15.954Z,47.69
2022-12-01T07:19:44.349Z,47.59
2022-12-01T07:22:12.775Z,47.33
2022-12-01T07:24:42.559Z,47.48
2022-12-01T07:27:11.021Z,47.59
2022-12-01T07:29:39.458Z,47.06
2022-12-01T07:32:07.926Z,47.13
2022-12-01T07:34:36.286Z,47.04
2022-12-01T07:37:04.823Z,46.85
2022-12-01T07:39:33.208Z,46.80
2022-12-01T07:42:03.665Z,46.87
2022-12-01T07:44:32.075Z,47.38
2022-12-01T07:47:01.564Z,47.62
2022-12-01T07:49:29.946Z,47.81
2022-12-01T07:51:58.417Z,47.60
2022-12-01T07:54:26.849Z,47.66
2022-12-01T07:56:55.374Z,47.51
2022-12-01T07:59:25.156Z,47.26
2022-12-01T08:01:53.647Z,47.57
2022-12-01T08:04:22.173Z,47.26
2022-12-01T08:06:50.604Z,47.39
2022-12-01T08:09:18.999Z,47.41
2022-12-01T08:11:47.435Z,47.40
2022-12-01T08:14:15.934Z,47.23
2022-12-01T08:16:45.706Z,47.12
2022-12-01T08:19:14.184Z,47.27
2022-12-01T08:21:42.617Z,46.79
2022-12-01T08:24:12.742Z,47.10
2022-12-01T08:26:41.170Z,47.14
2022-12-01T08:29:09.603Z,47.34
2022-12-01T08:31:39.265Z,47.14
2022-12-01T08:34:09.170Z,47.08
2022-12-01T08:36:37.729Z,47.18
2022-12-01T08:39:08.973Z,47.15
2022-12-01T08:41:37.403Z,47.31
2022-12-01T08:44:05.980Z,47.38
2022-12-01T08:46:36.088Z,47.46
2022-12-01T08:49:05.508Z,47.27
2022-12-01T08:51:36.308Z,47.27
2022-12-01T08:54:05.189Z,47.30
2022-12-01T08:56:36.199Z,47.22
2022-12-01T08:59:05.458Z,47.50
2022-12-01T09:01:34.246Z,47.25
2022-12-01T09:04:08.151Z,47.40
2022-12-01T09:06:41.100Z,47.53
2022-12-01T09:09:11.143Z,47.22
2022-12-01T09:11:40.029Z,47.58
2022-12-01T09:14:08.464Z,47.62
2022-12-01T09:16:37.417Z,47.37
2022-12-01T09:19:06.206Z,47.53
2022-12-01T09:21:36.993Z,47.23
2022-12-01T09:24:08.314Z,47.48
2022-12-01T09:26:36.708Z,47.65
2022-12-01T09:29:06.949Z,47.39
2022-12-01T09:31:35.914Z,47.58
2022-12-01T09:34:07.212Z,47.49
2022-12-01T09:36:37.177Z,47.39
2022-12-01T09:39:10.060Z,47.61
2022-12-01T09:41:43.720Z,47.73
2022-12-01T09:44:20.660Z,47.74
2022-12-01T09:46:52.684Z,47.41
2022-12-01T09:49:25.072Z,47.31
2022-12-01T09:51:55.402Z,47.44
2022-12-01T09:54:25.176Z,47.48
2022-12-01T09:56:55.889Z,47.64
2022-12-01T09:59:27.871Z,47.36
2022-12-01T10:02:00.379Z,47.67
2022-12-01T10:04:32.449Z,47.41
2022-12-01T10:07:04.395Z,47.59
2022-12-01T10:09:41.904Z,47.51
2022-12-01T10:12:16.243Z,47.46
2022-12-01T10:14:47.092Z,45.87
2022-12-01T10:17:25.363Z,45.04
2022-12-01T10:19:59.756Z,44.66
2022-12-01T10:22:51.750Z,42.90
2022-12-01T10:25:24.668Z,41.70
2022-12-01T10:28:07.710Z,41.81
2022-12-01T10:30:47.225Z,42.56
2022-12-01T10:33:24.815Z,43.12
2022-12-01T10:35:53.793Z,43.45
2022-12-01T10:38:27.959Z,43.69
2022-12-01T10:41:00.784Z,43.79
2022-12-01T10:43:35.185Z,44.14
2022-12-01T10:46:15.531Z,44.33
2022-12-01T10:48:54.751Z,44.29
2022-12-01T10:51:23.809Z,44.44
2022-12-01T10:53:59.710Z,44.79
2022-12-01T10:56:29.531Z,44.87
2022-12-01T10:59:03.356Z,44.99
2022-12-01T11:01:35.554Z,45.05
2022-12-01T11:04:08.107Z,44.79
2022-12-01T11:06:37.177Z,45.12
2022-12-01T11:09:08.343Z,45.29
2022-12-01T11:11:40.557Z,45.11
2022-12-01T11:14:20.276Z,45.44
2022-12-01T11:16:51.848Z,45.32
2022-12-01T11:19:28.201Z,45.36
2022-12-01T11:21:58.284Z,45.30
2022-12-01T11:24:31.598Z,45.75
2022-12-01T11:27:01.954Z,45.62
2022-12-01T11:29:36.758Z,45.83
2022-12-01T11:32:17.244Z,45.83
2022-12-01T11:34:51.396Z,45.74
2022-12-01T11:37:23.017Z,45.99
2022-12-01T11:39:53.207Z,46.06
2022-12-01T11:42:26.996Z,45.93
2022-12-01T11:45:01.586Z,46.06
2022-12-01T11:47:30.107Z,45.72
2022-12-01T11:50:00.731Z,45.41
2022-12-01T11:52:31.746Z,45.29
2022-12-01T11:55:09.700Z,45.57
2022-12-01T11:57:43.511Z,45.63
2022-12-01T12:00:16.715Z,45.92
2022-12-01T12:02:56.782Z,45.82
2022-12-01T12:05:43.248Z,45.80
2022-12-01T12:08:24.849Z,45.70
2022-12-01T12:11:02.757Z,45.42
2022-12-01T12:14:13.167Z,45.58
2022-12-01T12:16:57.728Z,45.64
2022-12-01T12:22:49.721Z,45.79
2022-12-01T12:25:31.156Z,45.67
2022-12-01T12:28:19.393Z,45.82
2022-12-01T12:31:02.766Z,46.08
2022-12-01T12:33:53.252Z,45.95
2022-12-01T12:36:34.603Z,46.23
2022-12-01T12:39:16.897Z,45.93
2022-12-01T12:41:47.508Z,46.14
2022-12-01T12:44:36.600Z,46.00
2022-12-01T12:47:17.208Z,46.11
2022-12-01T12:49:51.678Z,45.85
2022-12-01T12:52:26.384Z,45.75
2022-12-01T12:54:58.603Z,45.87
2022-12-01T12:57:32.284Z,45.79
2022-12-01T13:00:05.053Z,45.86
2022-12-01T13:02:41.002Z,45.67
2022-12-01T13:05:15.872Z,45.76
2022-12-01T13:07:50.041Z,45.89
2022-12-01T13:10:27.672Z,45.76
2022-12-01T13:13:01.559Z,45.98
2022-12-01T13:15:32.113Z,45.83
2022-12-01T13:18:09.251Z,45.79
2022-12-01T13:20:38.511Z,45.95
2022-12-01T13:23:09.892Z,45.98
2022-12-01T13:25:41.248Z,45.89
2022-12-01T13:28:18.277Z,46.24
2022-12-01T13:31:03.234Z,46.24
2022-12-01T13:33:34.704Z,46.03
2022-12-01T13:39:03.079Z,46.10
2022-12-01T13:41:34.483Z,46.17
2022-12-01T13:44:06.882Z,46.13
2022-12-01T13:46:57.358Z,45.85
2022-12-01T13:49:43.694Z,45.74
2022-12-01T13:52:19.430Z,45.77
2022-12-01T13:55:02.891Z,45.83
2022-12-01T13:57:33.552Z,45.79
2022-12-01T14:00:24.348Z,45.87
2022-12-01T14:03:30.380Z,46.12
2022-12-01T14:06:09.162Z,46.44
2022-12-01T14:08:45.452Z,46.61
2022-12-01T14:11:21.828Z,45.97
2022-12-01T14:13:54.341Z,46.78
2022-12-01T14:16:23.538Z,46.39
2022-12-01T14:18:56.076Z,45.67
2022-12-01T14:21:44.777Z,45.03
2022-12-01T14:24:24.070Z,42.62
2022-12-01T14:26:53.627Z,42.05
2022-12-01T14:29:29.506Z,42.00
2022-12-01T14:32:21.219Z,42.16
2022-12-01T14:34:59.304Z,42.58
2022-12-01T14:37:37.784Z,43.16
2022-12-01T14:40:12.875Z,43.69
2022-12-01T14:43:01.652Z,44.11
2022-12-01T14:45:35.708Z,44.54
2022-12-01T14:48:05.748Z,44.29
2022-12-01T14:50:46.253Z,44.69
2022-12-01T14:53:23.419Z,44.71
2022-12-01T14:55:56.500Z,45.36
2022-12-01T14:58:29.282Z,44.95
2022-12-01T15:01:04.331Z,45.17
2022-12-01T15:03:41.559Z,45.16
2022-12-01T15:06:11.365Z,45.44
2022-12-01T15:08:49.317Z,45.17
2022-12-01T15:11:28.415Z,45.18
2022-12-01T15:13:58.379Z,45.46
2022-12-01T15:16:30.368Z,45.43
2022-12-01T15:18:59.361Z,45.70
2022-12-01T15:21:30.724Z,45.47
2022-12-01T15:24:02.180Z,45.54
2022-12-01T15:26:32.314Z,45.59
2022-12-01T15:29:16.327Z,45.64
2022-12-01T15:31:47.426Z,45.82
2022-12-01T15:34:19.213Z,45.89
2022-12-01T15:36:48.721Z,45.85
2022-12-01T15:39:20.828Z,46.01
2022-12-01T15:41:54.017Z,46.12
2022-12-01T15:44:28.522Z,45.87
2022-12-01T15:46:57.407Z,45.80
2022-12-01T15:49:29.432Z,45.80
2022-12-01T15:52:08.460Z,45.64
2022-12-01T15:54:39.519Z,45.80
2022-12-01T15:57:08.171Z,46.01
2022-12-01T15:59:39.900Z,46.01
2022-12-01T16:02:23.493Z,45.98
2022-12-01T16:05:01.578Z,45.52
2022-12-01T16:08:04.956Z,45.26
2022-12-01T16:10:33.488Z,44.27
2022-12-01T16:13:39.234Z,43.96
2022-12-01T16:16:28.384Z,43.24
2022-12-01T16:18:59.560Z,43.69
2022-12-01T16:21:29.727Z,43.69
2022-12-01T16:24:03.627Z,43.77
2022-12-01T16:26:34.823Z,43.85
2022-12-01T16:29:03.484Z,43.77
2022-12-01T16:31:33.172Z,44.17
2022-12-01T16:34:13.772Z,43.89
2022-12-01T16:36:51.944Z,43.58
2022-12-01T16:39:20.373Z,42.90
2022-12-01T16:41:50.222Z,42.73
2022-12-01T16:44:28.450Z,42.93
2022-12-01T16:46:57.712Z,42.63
2022-12-01T16:49:26.285Z,42.87
2022-12-01T16:51:56.443Z,43.15
2022-12-01T16:54:26.353Z,43.44
2022-12-01T16:56:56.175Z,43.52
2022-12-01T16:59:25.120Z,43.72
2022-12-01T17:01:55.740Z,43.98
2022-12-01T17:04:25.518Z,43.84
2022-12-01T17:06:54.174Z,44.06
2022-12-01T17:09:23.339Z,44.17
2022-12-01T17:11:51.779Z,44.27
2022-12-01T17:14:21.636Z,44.13
2022-12-01T17:16:50.687Z,44.42
2022-12-01T17:19:19.234Z,44.04
2022-12-01T17:21:47.733Z,44.34
2022-12-01T17:24:18.973Z,44.15
2022-12-01T17:26:47.874Z,44.09
2022-12-01T17:29:16.417Z,44.14
2022-12-01T17:31:46.296Z,43.79
2022-12-01T17:34:14.854Z,43.97
2022-12-01T17:36:43.302Z,43.85
2022-12-01T17:39:11.748Z,44.09
2022-12-01T17:41:42.062Z,43.56
2022-12-01T17:44:10.583Z,42.94
2022-12-01T17:46:41.569Z,43.11
2022-12-01T17:49:13.150Z,43.30
2022-12-01T17:51:42.641Z,43.41
2022-12-01T17:54:11.250Z,43.54
2022-12-01T17:56:39.702Z,43.31
2022-12-01T17:59:08.142Z,43.51
2022-12-01T18:01:36.674Z,43.43
2022-12-01T18:04:05.412Z,43.65
2022-12-01T18:06:35.340Z,43.51
2022-12-01T18:09:03.895Z,43.61
2022-12-01T18:11:32.879Z,43.64
2022-12-01T18:14:01.625Z,43.60
2022-12-01T18:16:32.328Z,43.90
2022-12-01T18:19:02.015Z,43.68
2022-12-01T18:21:30.939Z,43.66
2022-12-01T18:24:02.832Z,43.90
2022-12-01T18:26:32.986Z,43.68
2022-12-01T18:29:03.614Z,43.63
2022-12-01T18:31:33.040Z,43.71
2022-12-01T18:34:03.676Z,43.47
2022-12-01T18:36:33.833Z,43.98
2022-12-01T18:39:07.144Z,43.72
2022-12-01T18:41:35.983Z,43.94
2022-12-01T18:44:05.313Z,43.75
2022-12-01T18:46:35.017Z,43.80
2022-12-01T18:49:04.677Z,43.84
2022-12-01T18:51:36.210Z,43.86
2022-12-01T18:54:07.690Z,44.13
2022-12-01T18:56:36.624Z,43.98
2022-12-01T18:59:07.226Z,44.08
2022-12-01T19:01:38.105Z,44.12
2022-12-01T19:04:08.999Z,43.93
2022-12-01T19:06:39.251Z,44.20
2022-12-01T19:09:11.319Z,44.03
2022-12-01T19:11:41.690Z,44.15
2022-12-01T19:14:15.391Z,44.18
2022-12-01T19:16:44.023Z,44.14
2022-12-01T19:19:12.588Z,44.20
2022-12-01T19:21:41.481Z,44.29
2022-12-01T19:24:11.989Z,44.20
2022-12-01T19:26:40.489Z,44.04
2022-12-01T19:29:09.177Z,44.02
2022-12-01T19:31:37.907Z,44.14
2022-12-01T19:34:06.432Z,44.09
2022-12-01T19:36:34.889Z,44.36
2022-12-01T19:39:07.226Z,44.55
2022-12-01T19:41:39.520Z,44.59
2022-12-01T19:44:08.100Z,44.70
2022-12-01T19:46:36.623Z,44.67
2022-12-01T19:49:06.724Z,44.54
2022-12-01T19:51:37.277Z,44.74
2022-12-01T19:54:08.097Z,44.62
2022-12-01T19:56:36.665Z,44.57
2022-12-01T19:59:07.854Z,44.56
2022-12-01T20:01:36.401Z,44.58
2022-12-01T20:04:05.547Z,44.71
2022-12-01T20:06:36.616Z,44.74
2022-12-01T20:09:07.096Z,44.72
2022-12-01T20:11:36.099Z,44.37
2022-12-01T20:14:07.521Z,44.68
2022-12-01T20:16:36.721Z,44.42
2022-12-01T20:19:06.366Z,44.51
2022-12-01T20:21:39.139Z,44.58
2022-12-01T20:24:09.520Z,44.47
2022-12-01T20:26:40.795Z,44.53
2022-12-01T20:29:13.779Z,44.52
2022-12-01T20:31:43.326Z,44.29
2022-12-01T20:34:15.242Z,44.39
2022-12-01T20:36:43.738Z,44.42
2022-12-01T20:39:12.546Z,44.33
2022-12-01T20:41:41.732Z,44.31
2022-12-01T20:44:14.226Z,44.46
2022-12-01T20:46:45.042Z,44.33
2022-12-01T20:49:14.861Z,44.16
2022-12-01T20:51:43.683Z,44.39
2022-12-01T20:54:30.282Z,44.32
2022-12-01T20:56:59.650Z,44.25
2022-12-01T20:59:30.182Z,44.26
2022-12-01T21:01:58.732Z,44.17
2022-12-01T21:04:27.176Z,44.43
2022-12-01T21:06:56.866Z,44.32
2022-12-01T21:09:25.942Z,44.17
2022-12-01T21:12:11.847Z,44.22
2022-12-01T21:14:45.495Z,44.31
2022-12-01T21:17:24.611Z,44.34
2022-12-01T21:20:01.339Z,44.39
2022-12-01T21:22:29.892Z,44.20
2022-12-01T21:25:04.489Z,44.33
2022-12-01T21:27:34.019Z,44.16
2022-12-01T21:30:14.971Z,44.33
2022-12-01T21:32:44.702Z,44.17
2022-12-01T21:35:19.100Z,44.20
2022-12-01T21:37:48.420Z,44.06
2022-12-01T21:40:18.619Z,44.02
2022-12-01T21:42:47.461Z,44.09
2022-12-01T21:45:23.222Z,44.09
2022-12-01T21:47:51.963Z,44.14
2022-12-01T21:50:24.238Z,44.00
2022-12-01T21:52:52.704Z,44.19
2022-12-01T21:55:36.130Z,44.10
2022-12-01T21:58:25.447Z,44.26
2022-12-01T22:00:59.517Z,44.25
2022-12-01T22:03:31.393Z,44.16
2022-12-01T22:08:54.551Z,44.19
2022-12-01T22:11:24.871Z,44.20
2022-12-01T22:14:00.592Z,44.25
2022-12-01T22:16:32.519Z,44.35
2022-12-01T22:19:02.552Z,44.11
2022-12-01T22:21:40.862Z,44.17
2022-12-01T22:24:21.569Z,44.14
2022-12-01T22:26:53.246Z,44.24
2022-12-01T22:29:28.995Z,44.20
2022-12-01T22:32:28.077Z,44.11
2022-12-01T22:34:59.886Z,44.07
2022-12-01T22:37:37.297Z,44.19
2022-12-01T22:40:33.552Z,44.28
2022-12-01T22:43:19.514Z,44.01
2022-12-01T22:45:49.919Z,44.31
2022-12-01T22:48:34.504Z,44.32
2022-12-01T22:51:17.210Z,44.04
2022-12-01T22:53:47.004Z,43.90
2022-12-01T22:56:27.363Z,44.28
2022-12-01T22:58:56.162Z,44.10
2022-12-01T23:01:28.197Z,44.34
2022-12-01T23:04:19.251Z,43.93
2022-12-01T23:07:01.482Z,44.03
2022-12-01T23:09:36.678Z,44.15
2022-12-01T23:12:36.311Z,44.12
2022-12-01T23:15:24.012Z,44.08
2022-12-01T23:17:52.855Z,44.10
2022-12-01T23:20:30.118Z,44.01
2022-12-01T23:23:01.052Z,44.14
2022-12-01T23:25:30.027Z,44.13
2022-12-01T23:28:02.047Z,43.99
2022-12-01T23:30:30.825Z,44.08
2022-12-01T23:33:17.313Z,44.13
2022-12-01T23:35:52.167Z,44.25
2022-12-01T23:38:24.685Z,44.15
2022-12-01T23:40:54.354Z,44.03
2022-12-01T23:43:26.138Z,44.15
2022-12-01T23:46:03.240Z,44.13
2022-12-01T23:48:35.373Z,44.15
2022-12-01T23:51:05.685Z,43.95
2022-12-01T23:53:34.374Z,44.00
2022-12-01T23:56:06.884Z,43.98
2022-12-01T23:58:35.671Z,44.06
